Long Branch, New Jersey
Current Conditions -  °F | °C
As of 5:35 AM on Tuesday 27 Jan 2015 (Local Time) from KBLM Reporting Station
Overcast Overcast  
Wind Chill:   Ceiling: 1100
Heat Index: 21°   Visibility: 1.5mi
Dew Point: 14°   Wind: 16mph
Humidity: 74%   Direction: 340°NNW
Pressure: 29.63"   Gusts: 23mph
Location:  40.3°N, 73.99°W
Report Text: KBLM 271035Z AUTO 34014G20KT 1 1/2SM OVC011 M06/M10 A2963 RMK AO1
Loading
Personal Weather Stations






























Interactive Weather Map New forecast layout! Learn more

10-Day Weather Forecast

Advertisements
Track Severe Weather on mobile